Karl Stefan Memorial Airport
KOFK : now visible

Airfield :











YOU CAN JOIN US ON...

 
LOGIN :

Register | Disclaimer

   EN    FR    IT 

 









Legend :    VFR   Marginal VFR   IFR   Intensive IFR   Very Intensive IFR
Visi :
Ceiling :
>= 8 km
>= 3000ft
5 to 8 km
1000 to 3000 ft
1500m to 5 km
500 to 1000 ft
800 to 1500m
200 to 500 ft
< 800m
< 200 ft
Symbols :   Thunderstorms  Fog  Heavy snow  Heavy precipitations  Wind > 20 kt






- Airport Elevation : 1573 ft


KOFK - Karl Stefan Memorial

CURRENT METAR :
  • 052356Z AUTO 14005KT 10SM CLR 02/M03 A3003 RMK AO2 SLP184 T00171028 10072 20017 58008 $

EXPIRED METARs :
  • 052256Z AUTO 17004KT 10SM CLR 04/M02 A3005 RMK AO2 SLP190 T00391022 $
  • 052156Z AUTO 23003KT 10SM CLR 05/M02 A3006 RMK AO2 SLP192 T00501017 $

TAF KOFK
Valid from the 06 at 00:00 until the 07 at 00:00 UTC


052323Z 0600/0624 14008KT P6SM SCT220
FM060800 15013G21KT P6SM SCT220 WS015/18042KT
FM061500 17012G20KT P6SM BKN090
FM061900 25009KT P6SM SCT080 BKN110
FM062200 29011G17KT P6SM SCT080 BKN100
KZMP FIR / North America



MET'MAP, your aeronautical weather chart ! - Copyright ORBIFLY December 2007 - Disclaimer

ORBIFLY MET'MAP TEAM :

Programming & Development : Alexandra Zaïnal
Original concept : Baudouin d'Aumeries
Technical & hardware support : Manuel Goepfert
Assistance : Marc-Olivier Méhu




SOURCES & CREDITS :

   NOAA       Earth
Advisory